sensor_id;sensor_type;location;lat;lon;timestamp;pressure;altitude;pressure_sealevel;temperature;humidity
25638;BME280;13496;51.040;13.680;2023-06-10T00:02:05;99556.31;;;26.33;40.14
25638;BME280;13496;51.040;13.680;2023-06-10T00:07:07;99554.69;;;26.32;40.07
25638;BME280;13496;51.040;13.680;2023-06-10T00:12:10;99559.22;;;26.31;40.03
25638;BME280;13496;51.040;13.680;2023-06-10T00:17:11;99568.25;;;26.30;40.31
25638;BME280;13496;51.040;13.680;2023-06-10T00:22:13;99582.81;;;26.28;40.52
25638;BME280;13496;51.040;13.680;2023-06-10T00:27:15;99577.50;;;26.28;40.55
25638;BME280;13496;51.040;13.680;2023-06-10T00:32:17;99580.41;;;26.26;40.56
25638;BME280;13496;51.040;13.680;2023-06-10T00:37:19;99580.41;;;26.26;40.23
25638;BME280;13496;51.040;13.680;2023-06-10T00:42:21;99585.16;;;26.24;40.20
25638;BME280;13496;51.040;13.680;2023-06-10T00:47:25;99593.16;;;26.24;40.67
25638;BME280;13496;51.040;13.680;2023-06-10T00:52:28;99598.72;;;26.23;40.82
25638;BME280;13496;51.040;13.680;2023-06-10T00:57:31;99604.03;;;26.23;40.85
25638;BME280;13496;51.040;13.680;2023-06-10T01:02:34;99612.50;;;26.20;40.54
25638;BME280;13496;51.040;13.680;2023-06-10T01:08:00;99617.25;;;26.18;40.49
25638;BME280;13496;51.040;13.680;2023-06-10T01:13:06;99630.53;;;26.18;40.56
25638;BME280;13496;51.040;13.680;2023-06-10T01:18:10;99625.47;;;26.16;40.40
25638;BME280;13496;51.040;13.680;2023-06-10T01:23:16;99628.38;;;26.15;40.85
25638;BME280;13496;51.040;13.680;2023-06-10T01:28:31;99639.03;;;26.15;40.84
25638;BME280;13496;51.040;13.680;2023-06-10T01:33:39;99637.06;;;26.10;40.83
25638;BME280;13496;51.040;13.680;2023-06-10T01:38:44;99639.41;;;26.06;41.20
25638;BME280;13496;51.040;13.680;2023-06-10T01:43:47;99638.38;;;26.08;40.88
25638;BME280;13496;51.040;13.680;2023-06-10T01:48:49;99632.47;;;26.05;41.17
25638;BME280;13496;51.040;13.680;2023-06-10T01:53:51;99640.69;;;26.04;40.98
25638;BME280;13496;51.040;13.680;2023-06-10T01:58:52;99651.34;;;26.04;41.30
25638;BME280;13496;51.040;13.680;2023-06-10T02:03:57;99650.75;;;26.02;41.49
25638;BME280;13496;51.040;13.680;2023-06-10T02:08:59;99660.59;;;26.01;41.00
25638;BME280;13496;51.040;13.680;2023-06-10T02:14:00;99662.91;;;25.98;41.31
25638;BME280;13496;51.040;13.680;2023-06-10T02:19:02;99671.94;;;25.97;41.16
25638;BME280;13496;51.040;13.680;2023-06-10T02:24:07;99663.97;;;25.97;41.22
25638;BME280;13496;51.040;13.680;2023-06-10T02:29:11;99670.56;;;25.94;41.67
25638;BME280;13496;51.040;13.680;2023-06-10T02:34:13;99673.22;;;25.94;41.63
25638;BME280;13496;51.040;13.680;2023-06-10T02:39:15;99683.31;;;25.92;41.26
25638;BME280;13496;51.040;13.680;2023-06-10T02:44:20;99672.09;;;25.90;41.21
25638;BME280;13496;51.040;13.680;2023-06-10T02:49:22;99671.75;;;25.87;41.47
25638;BME280;13496;51.040;13.680;2023-06-10T02:54:24;99666.34;;;25.81;41.30
25638;BME280;13496;51.040;13.680;2023-06-10T02:59:27;99660.78;;;25.83;41.50
25638;BME280;13496;51.040;13.680;2023-06-10T03:04:30;99666.91;;;25.83;41.27
25638;BME280;13496;51.040;13.680;2023-06-10T03:09:46;99658.94;;;25.83;41.42
25638;BME280;13496;51.040;13.680;2023-06-10T03:14:50;99672.22;;;25.83;41.57
25638;BME280;13496;51.040;13.680;2023-06-10T03:19:53;99683.09;;;25.82;41.73
25638;BME280;13496;51.040;13.680;2023-06-10T03:24:55;99677.00;;;25.81;41.47
25638;BME280;13496;51.040;13.680;2023-06-10T03:29:59;99678.25;;;25.79;41.59
25638;BME280;13496;51.040;13.680;2023-06-10T03:35:02;99679.06;;;25.79;41.54
25638;BME280;13496;51.040;13.680;2023-06-10T03:40:10;99684.38;;;25.79;41.76
25638;BME280;13496;51.040;13.680;2023-06-10T03:45:14;99685.19;;;25.80;41.36
25638;BME280;13496;51.040;13.680;2023-06-10T03:50:16;99686.25;;;25.79;41.49
25638;BME280;13496;51.040;13.680;2023-06-10T03:55:19;99692.56;;;25.78;41.65
25638;BME280;13496;51.040;13.680;2023-06-10T04:00:23;99702.19;;;25.79;41.43
25638;BME280;13496;51.040;13.680;2023-06-10T04:05:25;99702.41;;;25.77;41.36
25638;BME280;13496;51.040;13.680;2023-06-10T04:10:28;99711.19;;;25.78;41.77
25638;BME280;13496;51.040;13.680;2023-06-10T04:15:30;99709.53;;;25.77;41.50
25638;BME280;13496;51.040;13.680;2023-06-10T04:20:36;99712.19;;;25.77;41.45
25638;BME280;13496;51.040;13.680;2023-06-10T04:25:38;99707.13;;;25.75;41.54
25638;BME280;13496;51.040;13.680;2023-06-10T04:30:40;99706.09;;;25.76;41.52
25638;BME280;13496;51.040;13.680;2023-06-10T04:35:43;99708.19;;;25.74;41.55
25638;BME280;13496;51.040;13.680;2023-06-10T04:40:48;99702.88;;;25.74;41.59
25638;BME280;13496;51.040;13.680;2023-06-10T04:45:51;99708.19;;;25.74;41.76
25638;BME280;13496;51.040;13.680;2023-06-10T04:50:53;99711.88;;;25.73;41.49
25638;BME280;13496;51.040;13.680;2023-06-10T04:55:56;99712.69;;;25.74;41.50
25638;BME280;13496;51.040;13.680;2023-06-10T05:00:59;99708.41;;;25.73;41.77
25638;BME280;13496;51.040;13.680;2023-06-10T05:06:01;99705.75;;;25.73;41.69
25638;BME280;13496;51.040;13.680;2023-06-10T05:11:02;99712.69;;;25.74;41.60
25638;BME280;13496;51.040;13.680;2023-06-10T05:16:04;99708.19;;;25.74;41.43
25638;BME280;13496;51.040;13.680;2023-06-10T05:21:06;99706.56;;;25.73;41.46
25638;BME280;13496;51.040;13.680;2023-06-10T05:26:08;99717.19;;;25.73;41.24
25638;BME280;13496;51.040;13.680;2023-06-10T05:31:10;99714.78;;;25.72;41.56
25638;BME280;13496;51.040;13.680;2023-06-10T05:36:12;99721.69;;;25.73;41.56
25638;BME280;13496;51.040;13.680;2023-06-10T05:41:14;99728.66;;;25.74;41.73
25638;BME280;13496;51.040;13.680;2023-06-10T05:46:15;99731.84;;;25.76;41.38
25638;BME280;13496;51.040;13.680;2023-06-10T05:51:17;99731.66;;;25.77;41.57
25638;BME280;13496;51.040;13.680;2023-06-10T05:56:19;99735.09;;;25.78;41.41
25638;BME280;13496;51.040;13.680;2023-06-10T06:01:22;99733.97;;;25.74;41.31
25638;BME280;13496;51.040;13.680;2023-06-10T06:06:24;99734.75;;;25.74;41.66
25638;BME280;13496;51.040;13.680;2023-06-10T06:11:26;99732.09;;;25.74;41.69
25638;BME280;13496;51.040;13.680;2023-06-10T06:16:28;99733.97;;;25.74;41.50
25638;BME280;13496;51.040;13.680;2023-06-10T06:21:30;99736.38;;;25.75;41.37
25638;BME280;13496;51.040;13.680;2023-06-10T06:26:32;99734.09;;;25.79;41.89
25638;BME280;13496;51.040;13.680;2023-06-10T06:31:34;99738.34;;;25.80;41.66
25638;BME280;13496;51.040;13.680;2023-06-10T06:36:36;99745.31;;;25.81;43.07
25638;BME280;13496;51.040;13.680;2023-06-10T06:41:38;99745.84;;;25.83;43.13
25638;BME280;13496;51.040;13.680;2023-06-10T06:46:39;99750.94;;;25.85;42.86
25638;BME280;13496;51.040;13.680;2023-06-10T06:51:41;99754.41;;;25.85;42.54
25638;BME280;13496;51.040;13.680;2023-06-10T06:56:43;99760.28;;;25.87;42.52
25638;BME280;13496;51.040;13.680;2023-06-10T07:01:46;99776.56;;;25.91;42.77
25638;BME280;13496;51.040;13.680;2023-06-10T07:06:48;99779.56;;;25.94;42.53
25638;BME280;13496;51.040;13.680;2023-06-10T07:11:50;99778.84;;;25.99;42.34
25638;BME280;13496;51.040;13.680;2023-06-10T07:16:52;99782.44;;;26.04;42.31
25638;BME280;13496;51.040;13.680;2023-06-10T07:21:53;99785.19;;;26.10;42.19
25638;BME280;13496;51.040;13.680;2023-06-10T07:26:55;99792.28;;;26.04;42.49
25638;BME280;13496;51.040;13.680;2023-06-10T07:31:57;99801.47;;;26.13;42.20
25638;BME280;13496;51.040;13.680;2023-06-10T07:36:58;99799.41;;;26.15;41.99
25638;BME280;13496;51.040;13.680;2023-06-10T07:42:00;99801.81;;;26.17;41.72
25638;BME280;13496;51.040;13.680;2023-06-10T07:47:03;99811.88;;;26.15;41.87
25638;BME280;13496;51.040;13.680;2023-06-10T07:52:05;99801.25;;;26.15;41.86
25638;BME280;13496;51.040;13.680;2023-06-10T07:57:07;99804.09;;;26.25;41.87
25638;BME280;13496;51.040;13.680;2023-06-10T08:02:08;99802.81;;;26.27;41.44
25638;BME280;13496;51.040;13.680;2023-06-10T08:07:10;99806.28;;;26.28;41.82
25638;BME280;13496;51.040;13.680;2023-06-10T08:12:12;99807.31;;;26.27;42.03
25638;BME280;13496;51.040;13.680;2023-06-10T08:17:16;99804.41;;;26.28;41.65
25638;BME280;13496;51.040;13.680;2023-06-10T08:22:18;99816.25;;;26.21;41.75
25638;BME280;13496;51.040;13.680;2023-06-10T08:27:20;99821.69;;;26.26;42.03
25638;BME280;13496;51.040;13.680;2023-06-10T08:32:22;99827.22;;;26.24;41.85
25638;BME280;13496;51.040;13.680;2023-06-10T08:37:24;99817.72;;;26.28;41.80
25638;BME280;13496;51.040;13.680;2023-06-10T08:42:33;99819.78;;;26.38;41.36
25638;BME280;13496;51.040;13.680;2023-06-10T08:47:38;99816.16;;;26.44;41.58
25638;BME280;13496;51.040;13.680;2023-06-10T08:52:44;99807.19;;;26.34;41.54
25638;BME280;13496;51.040;13.680;2023-06-10T08:57:49;99807.72;;;26.47;41.28
25638;BME280;13496;51.040;13.680;2023-06-10T09:02:51;99808.47;;;26.60;41.44
25638;BME280;13496;51.040;13.680;2023-06-10T09:07:53;99803.72;;;26.62;41.54
25638;BME280;13496;51.040;13.680;2023-06-10T09:12:55;99806.16;;;26.63;41.04
25638;BME280;13496;51.040;13.680;2023-06-10T09:17:57;99801.63;;;26.64;41.40
25638;BME280;13496;51.040;13.680;2023-06-10T09:23:00;99805.25;;;26.58;41.27
25638;BME280;13496;51.040;13.680;2023-06-10T09:28:02;99790.19;;;26.63;41.12
25638;BME280;13496;51.040;13.680;2023-06-10T09:33:11;99805.09;;;26.64;41.04
25638;BME280;13496;51.040;13.680;2023-06-10T09:38:14;99796.06;;;26.65;41.57
25638;BME280;13496;51.040;13.680;2023-06-10T09:43:17;99800.56;;;26.65;41.18
25638;BME280;13496;51.040;13.680;2023-06-10T09:48:19;99801.47;;;26.70;41.19
25638;BME280;13496;51.040;13.680;2023-06-10T09:53:20;99810.28;;;26.71;41.25
25638;BME280;13496;51.040;13.680;2023-06-10T09:58:38;99804.06;;;26.82;41.03
25638;BME280;13496;51.040;13.680;2023-06-10T10:03:47;99813.84;;;26.93;40.86
25638;BME280;13496;51.040;13.680;2023-06-10T10:08:50;99807.94;;;26.91;40.53
25638;BME280;13496;51.040;13.680;2023-06-10T10:13:52;99811.91;;;26.89;40.88
25638;BME280;13496;51.040;13.680;2023-06-10T10:18:55;99801.66;;;26.97;40.63
25638;BME280;13496;51.040;13.680;2023-06-10T10:24:12;99796.16;;;26.87;40.50
25638;BME280;13496;51.040;13.680;2023-06-10T10:29:30;99798.25;;;26.68;40.65
25638;BME280;13496;51.040;13.680;2023-06-10T10:39:54;99797.38;;;26.63;41.28
25638;BME280;13496;51.040;13.680;2023-06-10T10:44:56;99797.75;;;26.88;40.79
25638;BME280;13496;51.040;13.680;2023-06-10T10:49:58;99803.34;;;26.87;41.10
25638;BME280;13496;51.040;13.680;2023-06-10T10:55:01;99788.59;;;27.13;40.21
25638;BME280;13496;51.040;13.680;2023-06-10T11:00:24;99781.78;;;27.05;40.80
25638;BME280;13496;51.040;13.680;2023-06-10T11:05:46;99787.38;;;27.20;40.00
25638;BME280;13496;51.040;13.680;2023-06-10T11:10:51;99778.78;;;27.35;40.19
25638;BME280;13496;51.040;13.680;2023-06-10T11:15:57;99769.97;;;27.52;39.59
25638;BME280;13496;51.040;13.680;2023-06-10T11:21:00;99759.84;;;27.54;39.69
25638;BME280;13496;51.040;13.680;2023-06-10T11:31:41;99754.94;;;27.67;38.92
25638;BME280;13496;51.040;13.680;2023-06-10T11:36:43;99747.16;;;27.83;38.34
25638;BME280;13496;51.040;13.680;2023-06-10T11:41:47;99748.22;;;27.82;38.04
25638;BME280;13496;51.040;13.680;2023-06-10T11:46:50;99746.78;;;28.82;36.11
25638;BME280;13496;51.040;13.680;2023-06-10T11:51:51;99740.34;;;29.73;34.31
25638;BME280;13496;51.040;13.680;2023-06-10T11:56:57;99722.31;;;30.42;33.70
25638;BME280;13496;51.040;13.680;2023-06-10T12:02:00;99731.94;;;30.94;32.71
25638;BME280;13496;51.040;13.680;2023-06-10T12:07:01;99736.19;;;30.18;33.65
25638;BME280;13496;51.040;13.680;2023-06-10T12:12:04;99725.16;;;29.89;34.10
25638;BME280;13496;51.040;13.680;2023-06-10T12:17:07;99730.88;;;30.33;33.50
25638;BME280;13496;51.040;13.680;2023-06-10T12:22:09;99724.47;;;30.45;32.36
25638;BME280;13496;51.040;13.680;2023-06-10T12:27:11;99713.63;;;29.83;33.09
25638;BME280;13496;51.040;13.680;2023-06-10T12:32:13;99706.38;;;29.69;33.74
25638;BME280;13496;51.040;13.680;2023-06-10T12:37:16;99708.81;;;29.75;33.38
25638;BME280;13496;51.040;13.680;2023-06-10T12:42:21;99720.13;;;29.40;33.13
25638;BME280;13496;51.040;13.680;2023-06-10T12:47:32;99705.97;;;29.39;33.42
25638;BME280;13496;51.040;13.680;2023-06-10T12:52:36;99700.84;;;29.23;33.54
25638;BME280;13496;51.040;13.680;2023-06-10T12:57:47;99699.19;;;29.22;33.40
25638;BME280;13496;51.040;13.680;2023-06-10T13:02:49;99702.09;;;29.10;33.27
25638;BME280;13496;51.040;13.680;2023-06-10T13:07:52;99702.09;;;29.10;34.00
25638;BME280;13496;51.040;13.680;2023-06-10T13:12:53;99712.56;;;29.16;33.96
25638;BME280;13496;51.040;13.680;2023-06-10T13:17:58;99703.56;;;28.90;34.44
25638;BME280;13496;51.040;13.680;2023-06-10T13:23:00;99711.56;;;28.90;34.61
25638;BME280;13496;51.040;13.680;2023-06-10T13:28:01;99700.75;;;29.07;33.87
25638;BME280;13496;51.040;13.680;2023-06-10T13:33:04;99705.94;;;28.87;34.00
25638;BME280;13496;51.040;13.680;2023-06-10T13:38:05;99715.81;;;28.81;33.87
25638;BME280;13496;51.040;13.680;2023-06-10T13:43:08;99709.81;;;28.69;33.47
25638;BME280;13496;51.040;13.680;2023-06-10T13:48:11;99693.84;;;28.74;33.30
25638;BME280;13496;51.040;13.680;2023-06-10T13:53:12;99688.63;;;28.52;33.71
25638;BME280;13496;51.040;13.680;2023-06-10T13:58:14;99688.84;;;28.45;33.75
25638;BME280;13496;51.040;13.680;2023-06-10T14:03:16;99696.88;;;28.51;33.33
25638;BME280;13496;51.040;13.680;2023-06-10T14:08:17;99689.66;;;28.51;33.56
25638;BME280;13496;51.040;13.680;2023-06-10T14:13:19;99698.94;;;28.43;33.33
25638;BME280;13496;51.040;13.680;2023-06-10T14:18:21;99690.91;;;28.38;33.50
25638;BME280;13496;51.040;13.680;2023-06-10T14:23:23;99681.84;;;28.39;32.84
25638;BME280;13496;51.040;13.680;2023-06-10T14:28:26;99678.03;;;28.35;33.06
25638;BME280;13496;51.040;13.680;2023-06-10T14:33:29;99688.72;;;28.35;32.91
25638;BME280;13496;51.040;13.680;2023-06-10T14:38:32;99688.97;;;28.34;33.57
25638;BME280;13496;51.040;13.680;2023-06-10T14:43:34;99697.59;;;28.41;33.60
25638;BME280;13496;51.040;13.680;2023-06-10T14:48:35;99685.59;;;28.43;32.82
25638;BME280;13496;51.040;13.680;2023-06-10T14:53:37;99693.81;;;28.37;32.69
25638;BME280;13496;51.040;13.680;2023-06-10T14:58:39;99697.03;;;28.39;32.77
25638;BME280;13496;51.040;13.680;2023-06-10T15:03:41;99690.13;;;28.43;32.71
25638;BME280;13496;51.040;13.680;2023-06-10T15:08:42;99695.25;;;28.44;32.26
25638;BME280;13496;51.040;13.680;2023-06-10T15:13:44;99685.09;;;28.46;32.13
25638;BME280;13496;51.040;13.680;2023-06-10T15:18:46;99680.63;;;28.52;32.02
25638;BME280;13496;51.040;13.680;2023-06-10T15:23:48;99686.19;;;28.51;31.99
25638;BME280;13496;51.040;13.680;2023-06-10T15:28:49;99675.13;;;28.37;32.12
25638;BME280;13496;51.040;13.680;2023-06-10T15:33:51;99691.34;;;28.30;32.30
25638;BME280;13496;51.040;13.680;2023-06-10T15:38:53;99681.66;;;28.51;32.46
25638;BME280;13496;51.040;13.680;2023-06-10T15:43:55;99676.31;;;28.51;33.01
25638;BME280;13496;51.040;13.680;2023-06-10T15:48:57;99684.28;;;28.46;33.67
25638;BME280;13496;51.040;13.680;2023-06-10T15:53:59;99689.41;;;28.53;32.92
25638;BME280;13496;51.040;13.680;2023-06-10T15:59:02;99674.78;;;28.60;33.43
25638;BME280;13496;51.040;13.680;2023-06-10T16:04:03;99689.16;;;28.54;33.51
25638;BME280;13496;51.040;13.680;2023-06-10T16:09:05;99694.31;;;28.66;33.38
25638;BME280;13496;51.040;13.680;2023-06-10T16:14:08;99692.41;;;28.61;33.36
25638;BME280;13496;51.040;13.680;2023-06-10T16:19:10;99692.97;;;28.63;33.29
25638;BME280;13496;51.040;13.680;2023-06-10T16:24:11;99706.56;;;28.62;32.91
25638;BME280;13496;51.040;13.680;2023-06-10T16:29:13;99707.13;;;28.64;33.32
25638;BME280;13496;51.040;13.680;2023-06-10T16:34:15;99697.97;;;28.55;33.01
25638;BME280;13496;51.040;13.680;2023-06-10T16:39:18;99702.19;;;28.51;33.15
25638;BME280;13496;51.040;13.680;2023-06-10T16:44:19;99712.09;;;28.50;33.24
25638;BME280;13496;51.040;13.680;2023-06-10T16:49:21;99710.69;;;28.42;33.35
25638;BME280;13496;51.040;13.680;2023-06-10T16:54:23;99713.34;;;28.42;33.49
25638;BME280;13496;51.040;13.680;2023-06-10T16:59:25;99720.56;;;28.42;33.58
25638;BME280;13496;51.040;13.680;2023-06-10T17:04:26;99721.34;;;28.37;33.84
25638;BME280;13496;51.040;13.680;2023-06-10T17:09:28;99725.28;;;28.35;34.59
25638;BME280;13496;51.040;13.680;2023-06-10T17:14:30;99725.78;;;28.32;34.79
25638;BME280;13496;51.040;13.680;2023-06-10T17:19:31;99727.59;;;28.26;35.08
25638;BME280;13496;51.040;13.680;2023-06-10T17:24:33;99729.22;;;28.27;34.63
25638;BME280;13496;51.040;13.680;2023-06-10T17:29:35;99733.94;;;28.20;35.04
25638;BME280;13496;51.040;13.680;2023-06-10T17:34:37;99738.47;;;28.19;34.74
25638;BME280;13496;51.040;13.680;2023-06-10T17:39:38;99737.69;;;28.19;35.41
25638;BME280;13496;51.040;13.680;2023-06-10T17:44:40;99737.91;;;28.17;35.54
25638;BME280;13496;51.040;13.680;2023-06-10T17:49:42;99743.50;;;28.16;35.87
25638;BME280;13496;51.040;13.680;2023-06-10T17:54:43;99747.25;;;28.15;35.54
25638;BME280;13496;51.040;13.680;2023-06-10T17:59:45;99751.72;;;28.09;35.81
25638;BME280;13496;51.040;13.680;2023-06-10T18:04:48;99754.16;;;28.11;36.26
25638;BME280;13496;51.040;13.680;2023-06-10T18:09:50;99756.19;;;28.04;36.22
25638;BME280;13496;51.040;13.680;2023-06-10T18:14:52;99757.50;;;28.01;36.40
25638;BME280;13496;51.040;13.680;2023-06-10T18:19:53;99762.78;;;27.96;36.97
25638;BME280;13496;51.040;13.680;2023-06-10T18:24:57;99760.53;;;27.88;37.21
25638;BME280;13496;51.040;13.680;2023-06-10T18:29:58;99761.59;;;27.87;37.62
25638;BME280;13496;51.040;13.680;2023-06-10T18:35:00;99762.91;;;27.84;37.60
25638;BME280;13496;51.040;13.680;2023-06-10T18:40:02;99768.75;;;27.81;37.84
25638;BME280;13496;51.040;13.680;2023-06-10T18:45:05;99771.91;;;27.78;37.97
25638;BME280;13496;51.040;13.680;2023-06-10T18:50:07;99778.59;;;27.81;37.89
25638;BME280;13496;51.040;13.680;2023-06-10T18:55:09;99785.94;;;27.73;38.09
25638;BME280;13496;51.040;13.680;2023-06-10T19:00:11;99786.94;;;27.67;38.04
25638;BME280;13496;51.040;13.680;2023-06-10T19:05:13;99790.16;;;27.69;38.13
25638;BME280;13496;51.040;13.680;2023-06-10T19:10:15;99812.22;;;27.65;38.70
25638;BME280;13496;51.040;13.680;2023-06-10T19:15:17;99812.28;;;27.70;38.24
25638;BME280;13496;51.040;13.680;2023-06-10T19:20:19;99830.47;;;27.73;38.53
25638;BME280;13496;51.040;13.680;2023-06-10T19:25:20;99834.69;;;27.69;38.47
25638;BME280;13496;51.040;13.680;2023-06-10T19:30:22;99837.28;;;27.64;38.16
25638;BME280;13496;51.040;13.680;2023-06-10T19:35:24;99842.72;;;27.52;39.00
25638;BME280;13496;51.040;13.680;2023-06-10T19:40:26;99849.91;;;27.52;39.47
25638;BME280;13496;51.040;13.680;2023-06-10T19:45:27;99855.72;;;27.48;39.16
25638;BME280;13496;51.040;13.680;2023-06-10T19:50:29;99860.06;;;27.55;39.10
25638;BME280;13496;51.040;13.680;2023-06-10T19:55:31;99855.25;;;27.52;38.93
25638;BME280;13496;51.040;13.680;2023-06-10T20:00:33;99853.78;;;27.44;38.81
25638;BME280;13496;51.040;13.680;2023-06-10T20:05:34;99863.31;;;27.40;38.94
25638;BME280;13496;51.040;13.680;2023-06-10T20:10:39;99861.97;;;27.37;38.68
25638;BME280;13496;51.040;13.680;2023-06-10T20:15:43;99865.19;;;27.39;38.55
25638;BME280;13496;51.040;13.680;2023-06-10T20:20:44;99873.97;;;27.40;38.93
25638;BME280;13496;51.040;13.680;2023-06-10T20:25:46;99881.66;;;27.36;38.89
25638;BME280;13496;51.040;13.680;2023-06-10T20:30:48;99878.97;;;27.36;38.60
25638;BME280;13496;51.040;13.680;2023-06-10T20:35:49;99888.63;;;27.37;38.51
25638;BME280;13496;51.040;13.680;2023-06-10T20:40:51;99882.72;;;27.35;38.86
25638;BME280;13496;51.040;13.680;2023-06-10T20:45:53;99893.84;;;27.32;38.53
25638;BME280;13496;51.040;13.680;2023-06-10T20:50:55;99897.50;;;27.26;39.03
25638;BME280;13496;51.040;13.680;2023-06-10T20:55:57;99889.41;;;27.21;39.26
25638;BME280;13496;51.040;13.680;2023-06-10T21:00:59;99896.59;;;27.20;39.06
25638;BME280;13496;51.040;13.680;2023-06-10T21:06:01;99894.84;;;27.26;38.67
25638;BME280;13496;51.040;13.680;2023-06-10T21:11:03;99916.94;;;27.26;39.05
25638;BME280;13496;51.040;13.680;2023-06-10T21:16:05;99912.44;;;27.27;38.84
25638;BME280;13496;51.040;13.680;2023-06-10T21:21:07;99914.50;;;27.25;38.94
25638;BME280;13496;51.040;13.680;2023-06-10T21:26:09;99910.72;;;27.21;39.33
25638;BME280;13496;51.040;13.680;2023-06-10T21:31:11;99922.75;;;27.23;39.28
25638;BME280;13496;51.040;13.680;2023-06-10T21:36:13;99929.16;;;27.22;39.28
25638;BME280;13496;51.040;13.680;2023-06-10T21:41:14;99931.84;;;27.11;39.24
25638;BME280;13496;51.040;13.680;2023-06-10T21:46:16;99932.31;;;27.08;39.19
25638;BME280;13496;51.040;13.680;2023-06-10T21:51:18;99939.72;;;27.06;38.85
25638;BME280;13496;51.040;13.680;2023-06-10T21:56:20;99941.25;;;27.01;38.76
25638;BME280;13496;51.040;13.680;2023-06-10T22:01:22;99941.72;;;26.98;39.03
25638;BME280;13496;51.040;13.680;2023-06-10T22:06:23;99943.25;;;26.94;39.02
25638;BME280;13496;51.040;13.680;2023-06-10T22:11:25;99945.13;;;26.94;38.73
25638;BME280;13496;51.040;13.680;2023-06-10T22:16:27;99944.50;;;27.03;39.68
25638;BME280;13496;51.040;13.680;2023-06-10T22:21:29;99941.00;;;27.03;39.62
25638;BME280;13496;51.040;13.680;2023-06-10T22:26:30;99949.25;;;27.01;39.34
25638;BME280;13496;51.040;13.680;2023-06-10T22:31:32;99943.94;;;27.01;39.23
25638;BME280;13496;51.040;13.680;2023-06-10T22:36:34;99944.97;;;27.00;39.61
25638;BME280;13496;51.040;13.680;2023-06-10T22:41:38;99946.84;;;27.00;39.47
25638;BME280;13496;51.040;13.680;2023-06-10T22:46:40;99941.72;;;26.98;39.73
25638;BME280;13496;51.040;13.680;2023-06-10T22:51:42;99945.94;;;26.94;39.71
25638;BME280;13496;51.040;13.680;2023-06-10T22:56:46;99940.75;;;26.88;39.07
25638;BME280;13496;51.040;13.680;2023-06-10T23:01:47;99946.06;;;26.88;39.55
25638;BME280;13496;51.040;13.680;2023-06-10T23:06:49;99938.41;;;26.91;39.80
25638;BME280;13496;51.040;13.680;2023-06-10T23:11:51;99941.53;;;26.88;40.08
25638;BME280;13496;51.040;13.680;2023-06-10T23:16:52;99938.31;;;26.86;40.03
25638;BME280;13496;51.040;13.680;2023-06-10T23:21:55;99947.38;;;26.85;40.04
25638;BME280;13496;51.040;13.680;2023-06-10T23:26:59;99952.91;;;26.84;40.23
25638;BME280;13496;51.040;13.680;2023-06-10T23:32:02;99944.13;;;26.83;40.13
25638;BME280;13496;51.040;13.680;2023-06-10T23:37:03;99945.41;;;26.81;40.23
25638;BME280;13496;51.040;13.680;2023-06-10T23:42:06;99950.97;;;26.79;40.19
25638;BME280;13496;51.040;13.680;2023-06-10T23:47:08;99949.38;;;26.78;40.52
25638;BME280;13496;51.040;13.680;2023-06-10T23:52:10;99954.91;;;26.76;40.46
25638;BME280;13496;51.040;13.680;2023-06-10T23:57:13;99955.16;;;26.75;40.56
